Time;durP1;ratioP1;P1;durP2;ratioP2;P2;SDS_P1;SDS_P2;PMS_P1;PMS_P2;Temp;Humidity;BMP_temperature;BMP_pressure;BME280_temperature;BME280_humidity;BME280_pressure;Samples;Min_cycle;Max_cycle;Signal;HPM_P1;HPM_P2
2021/01/15 00:01:06;;;;;;;9.93;6.68;;;2.90;90.10;;;;;;5058326;28;20503;-49
2021/01/15 00:03:38;;;;;;;10.63;6.38;;;2.90;90.30;;;;;;5093693;28;20036;-49
2021/01/15 00:06:06;;;;;;;10.82;7.78;;;2.90;90.40;;;;;;5093587;28;20039;-49
2021/01/15 00:08:39;;;;;;;11.82;7.88;;;2.80;90.30;;;;;;5093673;28;20047;-49
2021/01/15 00:11:16;;;;;;;13.43;8.45;;;2.80;90.40;;;;;;5058222;28;20499;-49
2021/01/15 00:13:42;;;;;;;12.50;8.77;;;2.80;90.10;;;;;;5058240;28;20070;-49
2021/01/15 00:16:16;;;;;;;10.02;6.75;;;2.90;90.10;;;;;;5093627;28;20464;-49
2021/01/15 00:18:42;;;;;;;13.57;8.48;;;2.80;90.10;;;;;;5094955;28;20070;-49
2021/01/15 00:21:08;;;;;;;10.10;6.10;;;2.70;90.40;;;;;;5062217;28;20040;-49
2021/01/15 00:23:34;;;;;;;13.30;7.80;;;2.60;90.70;;;;;;5097552;28;20051;-49
2021/01/15 00:25:59;;;;;;;10.18;6.82;;;2.70;90.60;;;;;;5062357;28;20032;-49
2021/01/15 00:28:25;;;;;;;9.48;6.20;;;2.70;90.50;;;;;;5097286;28;20032;-49
2021/01/15 00:30:51;;;;;;;8.93;6.68;;;2.70;90.30;;;;;;5097211;28;20058;-49
2021/01/15 00:33:17;;;;;;;8.20;6.28;;;2.70;90.50;;;;;;5097199;28;20030;-48
2021/01/15 00:35:42;;;;;;;8.07;6.53;;;2.70;90.20;;;;;;5097279;28;20027;-48
2021/01/15 00:38:08;;;;;;;9.38;6.45;;;2.80;90.50;;;;;;5096977;28;20032;-49
2021/01/15 00:40:34;;;;;;;8.68;6.63;;;2.60;90.30;;;;;;5061921;28;20036;-49
2021/01/15 00:42:59;;;;;;;11.65;8.13;;;2.70;90.60;;;;;;5097215;28;20119;-48
2021/01/15 00:45:25;;;;;;;7.97;6.00;;;2.70;90.30;;;;;;5061668;28;20060;-49
2021/01/15 00:47:51;;;;;;;8.02;6.68;;;2.60;90.40;;;;;;5096687;28;20032;-49
2021/01/15 00:50:16;;;;;;;9.27;7.03;;;2.70;90.40;;;;;;5097688;28;20057;-50
2021/01/15 00:52:42;;;;;;;10.60;6.80;;;2.70;90.20;;;;;;5097193;28;20035;-49
2021/01/15 00:55:08;;;;;;;10.13;6.20;;;2.70;90.30;;;;;;5097098;28;20111;-49
2021/01/15 00:57:38;;;;;;;10.55;7.30;;;2.70;90.20;;;;;;5061360;28;20040;-49
2021/01/15 01:00:08;;;;;;;10.75;7.05;;;2.70;90.60;;;;;;5061691;28;20039;-49
2021/01/15 01:02:35;;;;;;;13.88;8.40;;;2.80;90.20;;;;;;5044820;28;20068;-49
2021/01/15 01:05:03;;;;;;;10.52;7.32;;;2.80;90.00;;;;;;5096533;28;20028;-49
2021/01/15 01:07:31;;;;;;;16.80;9.45;;;2.90;90.00;;;;;;5096506;28;20024;-47
2021/01/15 01:09:57;;;;;;;11.68;7.75;;;2.80;90.00;;;;;;5096528;28;20028;-47
2021/01/15 01:12:23;;;;;;;17.63;10.55;;;2.90;89.70;;;;;;5096713;28;20024;-47
2021/01/15 01:14:48;;;;;;;17.73;9.68;;;3.00;89.60;;;;;;5096761;28;20035;-47
2021/01/15 01:17:14;;;;;;;15.27;9.10;;;2.90;89.40;;;;;;5096692;28;20435;-47
2021/01/15 01:19:40;;;;;;;11.50;7.35;;;2.90;88.60;;;;;;5096755;28;20032;-47
2021/01/15 01:22:06;;;;;;;8.63;6.32;;;2.90;88.70;;;;;;5096465;28;20030;-47
2021/01/15 01:24:31;;;;;;;8.93;6.00;;;2.90;88.80;;;;;;5096175;28;20031;-47
2021/01/15 01:26:57;;;;;;;9.05;6.70;;;2.90;89.20;;;;;;5096571;28;20494;-47
2021/01/15 01:29:23;;;;;;;8.55;6.78;;;2.90;89.40;;;;;;5060228;28;20076;-48
2021/01/15 01:31:48;;;;;;;8.75;5.90;;;2.90;89.60;;;;;;5060478;28;20059;-47
2021/01/15 01:34:14;;;;;;;8.93;6.07;;;2.90;89.00;;;;;;5060962;28;20036;-47
2021/01/15 01:36:40;;;;;;;6.00;4.32;;;2.70;89.40;;;;;;5096452;28;20081;-47
2021/01/15 01:39:05;;;;;;;8.32;5.90;;;2.60;89.80;;;;;;5096209;28;20098;-47
2021/01/15 01:41:31;;;;;;;8.07;6.03;;;2.60;90.00;;;;;;5095975;28;20032;-47
2021/01/15 01:43:57;;;;;;;7.57;5.60;;;2.70;89.20;;;;;;5095698;28;20103;-47
2021/01/15 01:46:23;;;;;;;8.20;5.90;;;2.70;89.50;;;;;;5095869;28;20027;-47
2021/01/15 01:48:49;;;;;;;8.15;5.95;;;2.70;89.40;;;;;;5095869;28;20036;-47
2021/01/15 01:51:16;;;;;;;8.57;6.38;;;2.70;89.30;;;;;;5095928;28;20028;-47
2021/01/15 01:53:42;;;;;;;8.50;5.93;;;2.70;89.50;;;;;;5095456;28;20032;-47
2021/01/15 01:56:09;;;;;;;9.23;6.07;;;2.70;89.10;;;;;;5095735;28;20074;-47
2021/01/15 01:58:36;;;;;;;8.02;5.97;;;2.80;89.10;;;;;;5095786;28;20098;-47
2021/01/15 02:01:06;;;;;;;8.32;6.53;;;2.70;89.00;;;;;;5095659;28;20375;-47
2021/01/15 02:03:32;;;;;;;9.55;6.53;;;2.60;89.40;;;;;;5095452;28;20452;-47
2021/01/15 02:05:58;;;;;;;8.80;6.65;;;2.60;89.40;;;;;;5060098;28;20438;-51
2021/01/15 02:08:30;;;;;;;8.23;5.80;;;2.70;89.60;;;;;;5095605;28;20036;-47
2021/01/15 02:11:26;;;;;;;7.55;5.88;;;2.70;89.80;;;;;;5095335;28;20082;-47
2021/01/15 02:14:41;;;;;;;6.55;4.80;;;2.70;89.70;;;;;;5095884;28;20119;-47
2021/01/15 02:17:13;;;;;;;9.02;6.88;;;2.60;90.10;;;;;;4993567;28;20204;-47
2021/01/15 02:19:59;;;;;;;9.45;7.30;;;2.60;90.00;;;;;;4993667;28;20043;-47
2021/01/15 02:22:46;;;;;;;9.40;6.15;;;2.60;90.10;;;;;;4993757;28;20037;-47
2021/01/15 02:25:59;;;;;;;8.60;6.13;;;2.70;90.10;;;;;;4993533;28;20057;-48
2021/01/15 02:28:31;;;;;;;10.00;7.47;;;2.70;90.00;;;;;;4916438;29;20094;-48
2021/01/15 02:31:19;;;;;;;10.45;6.63;;;2.70;89.90;;;;;;4916519;29;20063;-48
2021/01/15 02:34:03;;;;;;;11.45;7.10;;;2.70;90.00;;;;;;4916573;29;20036;-48
2021/01/15 02:36:41;;;;;;;9.93;6.38;;;2.80;89.70;;;;;;4916210;29;20040;-48
2021/01/15 02:39:35;;;;;;;8.55;5.75;;;2.70;89.50;;;;;;4916435;29;20126;-48
2021/01/15 02:42:01;;;;;;;9.52;6.30;;;2.80;89.90;;;;;;4916057;29;20107;-48
2021/01/15 02:44:29;;;;;;;9.32;6.63;;;2.80;89.60;;;;;;4916363;29;20044;-48
2021/01/15 02:47:00;;;;;;;10.93;7.22;;;2.70;90.00;;;;;;4916230;29;20047;-48
2021/01/15 02:49:27;;;;;;;7.63;6.30;;;2.70;89.60;;;;;;4916118;29;20420;-48
2021/01/15 02:51:54;;;;;;;10.23;6.88;;;2.70;89.50;;;;;;4916380;29;20036;-47
2021/01/15 02:54:20;;;;;;;8.77;6.57;;;2.70;89.70;;;;;;4986496;28;20034;-48
2021/01/15 02:56:46;;;;;;;10.02;6.45;;;2.70;89.60;;;;;;5012560;28;20057;-48
2021/01/15 02:59:11;;;;;;;9.32;6.68;;;2.70;89.80;;;;;;5012513;28;20112;-47
2021/01/15 03:01:53;;;;;;;8.95;6.50;;;2.80;89.80;;;;;;5012829;28;20025;-48
2021/01/15 03:04:50;;;;;;;8.32;6.45;;;2.80;89.50;;;;;;5047649;28;20044;-48
2021/01/15 03:07:16;;;;;;;9.00;6.18;;;2.90;88.90;;;;;;5094430;28;20028;-48
2021/01/15 03:09:46;;;;;;;7.70;5.78;;;2.90;88.50;;;;;;5094533;28;20055;-48
2021/01/15 03:12:15;;;;;;;8.73;6.50;;;2.90;88.20;;;;;;5094304;28;20074;-47
2021/01/15 03:14:43;;;;;;;10.32;6.65;;;2.90;88.70;;;;;;5094022;28;20027;-48
2021/01/15 03:17:10;;;;;;;7.43;5.50;;;3.00;88.60;;;;;;5094449;28;20023;-48
2021/01/15 03:19:37;;;;;;;7.68;6.15;;;2.90;88.40;;;;;;5058875;28;20065;-48
2021/01/15 03:22:32;;;;;;;9.48;6.32;;;2.80;88.80;;;;;;5042227;28;20430;-47
2021/01/15 03:24:59;;;;;;;8.50;6.15;;;2.90;88.70;;;;;;5090521;28;20043;-47
2021/01/15 03:27:48;;;;;;;8.38;5.88;;;2.80;89.10;;;;;;5093795;28;20069;-48
2021/01/15 03:30:28;;;;;;;8.27;5.68;;;2.80;89.20;;;;;;5093720;28;20078;-47
2021/01/15 03:32:59;;;;;;;7.70;5.75;;;2.70;89.20;;;;;;5048110;28;20382;-48
2021/01/15 03:35:26;;;;;;;8.63;6.60;;;2.70;89.30;;;;;;5093864;28;20055;-48
2021/01/15 03:38:02;;;;;;;8.30;6.03;;;2.70;89.50;;;;;;5093727;28;20086;-48
2021/01/15 03:40:33;;;;;;;7.28;4.90;;;2.70;89.80;;;;;;5093882;28;20089;-48
2021/01/15 03:43:00;;;;;;;6.93;5.47;;;2.60;90.00;;;;;;5093868;28;20028;-48
2021/01/15 03:45:27;;;;;;;9.15;6.85;;;2.60;90.00;;;;;;5093879;28;20443;-48
2021/01/15 03:47:53;;;;;;;7.88;5.65;;;2.60;90.00;;;;;;5093397;28;20068;-48
2021/01/15 03:50:19;;;;;;;7.68;5.85;;;2.60;90.00;;;;;;5093869;28;20035;-47
2021/01/15 03:52:48;;;;;;;8.85;6.57;;;2.60;90.10;;;;;;5093132;28;20028;-47
2021/01/15 03:55:15;;;;;;;7.32;6.03;;;2.60;90.00;;;;;;5093608;28;20036;-48
2021/01/15 03:57:40;;;;;;;8.15;6.00;;;2.70;89.60;;;;;;5093719;28;20508;-47
2021/01/15 04:00:07;;;;;;;8.65;6.28;;;2.70;89.60;;;;;;5093825;28;20024;-48
2021/01/15 04:02:33;;;;;;;8.38;6.53;;;2.60;89.90;;;;;;5041646;28;20146;-47
2021/01/15 04:04:59;;;;;;;9.38;6.97;;;2.70;89.70;;;;;;5093500;28;20083;-47
2021/01/15 04:07:25;;;;;;;8.98;6.60;;;2.80;89.30;;;;;;5093357;28;20032;-48
2021/01/15 04:09:51;;;;;;;8.80;6.47;;;2.90;88.90;;;;;;5093385;28;20382;-48
2021/01/15 04:12:16;;;;;;;8.50;6.45;;;2.80;89.20;;;;;;5093516;28;20099;-49
2021/01/15 04:14:43;;;;;;;8.73;6.55;;;2.80;88.70;;;;;;5093512;28;20384;-49
2021/01/15 04:17:09;;;;;;;9.75;7.03;;;2.90;88.30;;;;;;5093541;28;20028;-49
2021/01/15 04:19:35;;;;;;;10.27;7.75;;;3.00;88.90;;;;;;5093464;28;20597;-49
2021/01/15 04:22:00;;;;;;;10.23;7.07;;;3.00;88.70;;;;;;5093664;28;20384;-49
2021/01/15 04:24:26;;;;;;;8.77;6.30;;;3.00;88.00;;;;;;5093308;28;20053;-49
2021/01/15 04:26:56;;;;;;;9.60;6.88;;;3.00;88.00;;;;;;5093353;28;20402;-47
2021/01/15 04:29:22;;;;;;;8.80;6.32;;;3.10;87.90;;;;;;5090572;28;20119;-47
2021/01/15 04:31:49;;;;;;;8.77;6.28;;;3.20;87.30;;;;;;5093175;28;20052;-47
2021/01/15 04:34:15;;;;;;;8.93;6.10;;;3.10;87.20;;;;;;5058139;28;20089;-47
2021/01/15 04:36:42;;;;;;;10.15;6.53;;;3.20;86.90;;;;;;5093154;28;20024;-47
2021/01/15 04:39:08;;;;;;;9.60;6.80;;;3.20;86.30;;;;;;5093206;28;20028;-47
2021/01/15 04:41:35;;;;;;;8.07;6.60;;;3.10;86.60;;;;;;5093356;28;20024;-47
2021/01/15 04:44:02;;;;;;;9.05;6.65;;;3.10;86.40;;;;;;5093025;28;20032;-47
2021/01/15 04:46:28;;;;;;;7.47;6.00;;;3.10;86.50;;;;;;5030970;28;20072;-48
2021/01/15 04:48:55;;;;;;;9.27;6.28;;;3.00;86.80;;;;;;5014506;28;20107;-49
2021/01/15 04:51:24;;;;;;;9.05;6.53;;;2.90;86.70;;;;;;5031171;28;20095;-49
2021/01/15 04:54:02;;;;;;;8.82;7.05;;;2.80;86.60;;;;;;5031097;28;20037;-46
2021/01/15 04:56:40;;;;;;;8.57;6.60;;;2.90;86.20;;;;;;5030750;28;20429;-46
2021/01/15 04:59:09;;;;;;;15.38;9.60;;;2.90;85.90;;;;;;5031048;28;20091;-47
2021/01/15 05:01:39;;;;;;;10.82;7.63;;;2.90;85.60;;;;;;5030874;28;20440;-47
2021/01/15 05:04:09;;;;;;;9.48;6.50;;;2.90;85.60;;;;;;5028364;28;20049;-49
2021/01/15 05:06:53;;;;;;;8.45;6.55;;;2.80;85.60;;;;;;5017634;28;20034;-47
2021/01/15 05:09:24;;;;;;;9.05;6.90;;;2.80;85.80;;;;;;5001454;28;20045;-47
2021/01/15 05:11:51;;;;;;;10.40;7.20;;;2.80;85.90;;;;;;5034191;28;20061;-48
2021/01/15 05:14:21;;;;;;;10.60;6.90;;;2.90;86.30;;;;;;5034158;28;20025;-47
2021/01/15 05:16:49;;;;;;;8.93;6.63;;;2.90;85.00;;;;;;5047955;28;20361;-47
2021/01/15 05:19:15;;;;;;;8.88;6.97;;;2.90;85.10;;;;;;5096381;28;20107;-48
2021/01/15 05:21:42;;;;;;;18.50;12.55;;;2.80;85.00;;;;;;5096339;28;20053;-47
2021/01/15 05:24:10;;;;;;;30.80;21.10;;;2.80;85.30;;;;;;5096121;28;20028;-47
2021/01/15 05:26:37;;;;;;;59.92;34.13;;;2.70;85.70;;;;;;5061157;28;20043;-47
2021/01/15 05:29:05;;;;;;;25.80;18.52;;;2.70;86.20;;;;;;5096080;28;20074;-48
2021/01/15 05:31:50;;;;;;;51.10;33.78;;;2.60;86.50;;;;;;5095984;28;20055;-47
2021/01/15 05:34:15;;;;;;;29.52;21.23;;;2.60;87.50;;;;;;5096023;28;20024;-47
2021/01/15 05:36:41;;;;;;;22.08;16.60;;;2.70;87.40;;;;;;5096204;28;20035;-47
2021/01/15 05:39:16;;;;;;;17.15;12.20;;;2.70;87.70;;;;;;5095785;28;20024;-47
2021/01/15 05:41:43;;;;;;;28.55;22.52;;;2.70;88.10;;;;;;5095944;28;20107;-47
2021/01/15 05:44:09;;;;;;;15.07;11.57;;;2.70;88.20;;;;;;5089693;28;20078;-48
2021/01/15 05:46:44;;;;;;;13.10;8.90;;;2.80;87.60;;;;;;5083785;28;20407;-47
2021/01/15 05:49:10;;;;;;;10.60;7.88;;;2.80;86.70;;;;;;5007607;28;20467;-47
2021/01/15 05:51:38;;;;;;;13.25;9.55;;;2.90;86.20;;;;;;5075456;28;20055;-47
2021/01/15 05:54:09;;;;;;;10.20;7.38;;;2.90;86.60;;;;;;5040306;28;20044;-47
2021/01/15 05:56:39;;;;;;;10.77;8.13;;;2.80;86.10;;;;;;5075323;28;20036;-47
2021/01/15 05:59:20;;;;;;;13.90;8.23;;;2.80;86.20;;;;;;5075398;28;20074;-47
2021/01/15 06:01:46;;;;;;;12.30;8.68;;;2.80;85.90;;;;;;5040476;28;20045;-47
2021/01/15 06:04:17;;;;;;;10.73;8.18;;;2.70;86.60;;;;;;5075274;28;20028;-46
2021/01/15 06:06:44;;;;;;;13.20;9.18;;;2.70;86.60;;;;;;5075539;28;20048;-49
2021/01/15 06:09:11;;;;;;;13.60;9.55;;;2.80;86.20;;;;;;5075233;28;20035;-50
2021/01/15 06:11:39;;;;;;;12.80;9.10;;;2.80;86.30;;;;;;5013427;28;20037;-48
2021/01/15 06:14:28;;;;;;;12.88;9.02;;;2.70;86.70;;;;;;5013447;28;20478;-49
2021/01/15 06:17:10;;;;;;;47.05;23.20;;;2.60;86.90;;;;;;5012863;28;20097;-48
2021/01/15 06:20:00;;;;;;;11.90;8.27;;;2.70;86.70;;;;;;5013398;28;20029;-49
2021/01/15 06:22:27;;;;;;;11.80;8.38;;;2.70;86.80;;;;;;5013243;28;20029;-48
2021/01/15 06:25:09;;;;;;;8.73;6.70;;;2.70;86.40;;;;;;5013215;28;20029;-44
2021/01/15 06:27:37;;;;;;;11.93;8.98;;;2.70;85.50;;;;;;4965584;28;20452;-49
2021/01/15 06:30:26;;;;;;;15.90;11.73;;;2.70;85.30;;;;;;5012762;28;20088;-49
2021/01/15 06:32:53;;;;;;;22.10;19.73;;;2.70;85.10;;;;;;4941658;28;20079;-49
2021/01/15 06:35:30;;;;;;;17.80;14.52;;;2.60;85.00;;;;;;4984534;28;20073;-49
2021/01/15 06:38:09;;;;;;;17.58;12.23;;;2.60;84.70;;;;;;4982715;28;20478;-51
2021/01/15 06:40:36;;;;;;;18.52;14.45;;;2.60;84.40;;;;;;4944411;28;20073;-48
2021/01/15 06:43:06;;;;;;;16.88;12.90;;;2.70;84.00;;;;;;5013840;28;20097;-48
2021/01/15 06:45:49;;;;;;;13.85;10.15;;;2.80;83.60;;;;;;5042720;28;20029;-51
2021/01/15 06:48:15;;;;;;;;;;;2.90;82.80;;;;;;5034895;28;20546;-51
2021/01/15 06:50:44;;;;;;;12.00;9.07;;;2.90;83.00;;;;;;5032045;28;19971;-51
2021/01/15 06:53:24;;;;;;;11.77;8.57;;;3.00;81.70;;;;;;5032500;28;20252;-51
2021/01/15 06:55:57;;;;;;;9.80;7.80;;;3.00;81.60;;;;;;4999759;28;20033;-51
2021/01/15 06:58:25;;;;;;;12.35;9.95;;;;;;;;;;5032573;28;20033;-51
2021/01/15 07:01:16;;;;;;;12.77;10.80;;;7.00;77.30;;;;;;5032213;28;20040;-51
2021/01/15 07:03:51;;;;;;;22.80;16.52;;;;;;;;;;5050757;28;20036;-51
2021/01/15 07:06:28;;;;;;;17.98;13.63;;;;;;;;;;5074137;28;20379;-51
2021/01/15 07:08:55;;;;;;;21.70;14.98;;;;;;;;;;5073903;28;20037;-51
2021/01/15 07:11:23;;;;;;;11.43;8.15;;;13.60;50.30;;;;;;5074163;28;20029;-51
2021/01/15 07:13:56;;;;;;;10.45;8.65;;;;;;;;;;5074192;28;20040;-51
2021/01/15 07:16:30;;;;;;;10.25;8.52;;;15.10;45.10;;;;;;5074052;28;20029;-51
2021/01/15 07:19:05;;;;;;;10.07;8.35;;;16.00;43.00;;;;;;5073656;28;20078;-51
2021/01/15 07:21:34;;;;;;;12.77;8.27;;;;;;;;;;5073571;28;20032;-51
2021/01/15 07:24:03;;;;;;;10.80;8.50;;;;;;;;;;5073921;28;20020;-51
2021/01/15 07:26:39;;;;;;;10.63;8.50;;;;;;;;;;5073856;28;20103;-52
2021/01/15 07:29:07;;;;;;;10.65;9.25;;;18.50;35.70;;;;;;5072968;28;20041;-51
2021/01/15 07:31:36;;;;;;;11.35;8.93;;;19.20;35.40;;;;;;5073334;28;20095;-51
2021/01/15 07:34:05;;;;;;;11.95;10.07;;;19.00;33.80;;;;;;5073704;28;20032;-51
2021/01/15 07:36:35;;;;;;;15.48;13.15;;;19.00;33.40;;;;;;5073435;28;20059;-51
2021/01/15 07:39:12;;;;;;;15.00;13.48;;;19.40;33.50;;;;;;5073340;28;20036;-51
2021/01/15 07:41:55;;;;;;;13.23;11.85;;;20.40;32.40;;;;;;5073434;28;20075;-51
2021/01/15 07:44:26;;;;;;;13.32;11.43;;;19.70;31.00;;;;;;5073375;28;20040;-52
2021/01/15 07:46:54;;;;;;;22.63;18.67;;;17.00;32.50;;;;;;5073680;28;20387;-51
2021/01/15 07:49:20;;;;;;;22.48;18.77;;;15.20;35.20;;;;;;5038380;28;20063;-51
2021/01/15 07:52:05;;;;;;;20.48;16.77;;;13.60;38.20;;;;;;5073558;28;20461;-51
2021/01/15 07:54:57;;;;;;;17.40;15.25;;;12.20;41.40;;;;;;5073570;28;20056;-51
2021/01/15 07:57:24;;;;;;;15.32;12.68;;;10.90;44.60;;;;;;5073465;28;20037;-53
2021/01/15 07:59:50;;;;;;;16.85;13.27;;;11.10;62.10;;;;;;5073506;28;20440;-52
2021/01/15 08:02:19;;;;;;;15.05;12.30;;;12.10;48.70;;;;;;5073503;28;20086;-53
2021/01/15 08:04:45;;;;;;;15.07;12.85;;;13.50;43.90;;;;;;5038553;28;20439;-53
2021/01/15 08:07:20;;;;;;;22.48;17.83;;;14.80;42.80;;;;;;5073471;28;20421;-51
2021/01/15 08:09:45;;;;;;;18.00;15.15;;;16.50;39.10;;;;;;5073399;28;20043;-51
2021/01/15 08:12:11;;;;;;;18.50;15.23;;;17.50;36.60;;;;;;5075355;28;20036;-51
2021/01/15 08:14:38;;;;;;;15.45;12.75;;;17.30;35.70;;;;;;5110362;28;20490;-51
2021/01/15 08:17:06;;;;;;;13.30;11.95;;;17.40;36.20;;;;;;5113608;28;20027;-51
2021/01/15 08:19:36;;;;;;;12.15;10.93;;;18.40;34.80;;;;;;5107649;28;20031;-51
2021/01/15 08:22:05;;;;;;;13.80;12.25;;;18.30;33.20;;;;;;5083569;28;20064;-51
2021/01/15 08:24:31;;;;;;;12.23;10.57;;;19.20;33.20;;;;;;5063741;28;20051;-51
2021/01/15 08:26:57;;;;;;;15.02;12.90;;;18.60;32.50;;;;;;5092683;28;20032;-51
2021/01/15 08:29:30;;;;;;;13.02;11.60;;;18.20;33.10;;;;;;5057962;28;20051;-51
2021/01/15 08:32:00;;;;;;;14.32;11.30;;;19.10;33.00;;;;;;5093388;28;20052;-51
2021/01/15 08:34:34;;;;;;;12.00;10.70;;;19.80;32.40;;;;;;5057842;28;20043;-51
2021/01/15 08:37:02;;;;;;;13.75;12.40;;;19.70;32.10;;;;;;5093152;28;20553;-51
2021/01/15 08:39:28;;;;;;;15.80;13.20;;;19.60;31.70;;;;;;5094516;28;20165;-51
2021/01/15 08:41:58;;;;;;;16.35;14.75;;;19.90;31.60;;;;;;5061111;28;20119;-51
2021/01/15 08:44:33;;;;;;;20.33;18.42;;;19.90;30.80;;;;;;5097161;28;20024;-51
2021/01/15 08:47:02;;;;;;;18.63;16.92;;;19.50;32.00;;;;;;5096884;28;20108;-51
2021/01/15 08:49:27;;;;;;;23.00;20.80;;;19.90;31.40;;;;;;5096584;28;20154;-51
2021/01/15 08:51:55;;;;;;;20.42;18.52;;;20.50;30.80;;;;;;5096997;28;20069;-51
2021/01/15 08:54:23;;;;;;;24.00;21.75;;;20.50;30.60;;;;;;5096776;28;20039;-51
2021/01/15 08:56:50;;;;;;;24.17;21.98;;;20.20;30.50;;;;;;5096716;28;20039;-51
2021/01/15 08:59:27;;;;;;;21.40;19.48;;;19.50;30.60;;;;;;5096662;28;20372;-51
2021/01/15 09:01:57;;;;;;;18.67;16.85;;;19.30;31.40;;;;;;5096713;28;20032;-51
2021/01/15 09:04:26;;;;;;;28.65;26.40;;;19.50;31.30;;;;;;5096775;28;20038;-51
2021/01/15 09:06:56;;;;;;;19.70;17.95;;;19.40;31.50;;;;;;5096509;28;20468;-51
2021/01/15 09:09:24;;;;;;;16.40;15.00;;;19.80;30.40;;;;;;5061048;28;20511;-51
2021/01/15 09:11:52;;;;;;;17.20;15.70;;;17.90;31.70;;;;;;5096797;28;20495;-51
2021/01/15 09:14:23;;;;;;;22.85;21.00;;;16.40;34.50;;;;;;5096512;28;20024;-51
2021/01/15 09:16:55;;;;;;;20.40;18.70;;;18.00;34.00;;;;;;5096668;28;20031;-51
2021/01/15 09:19:22;;;;;;;40.63;38.08;;;18.10;34.30;;;;;;5096663;28;20027;-51
2021/01/15 09:21:52;;;;;;;26.52;24.15;;;18.50;33.20;;;;;;5096538;28;20396;-51
2021/01/15 09:24:19;;;;;;;31.98;29.77;;;18.10;33.00;;;;;;5096388;28;20380;-51
2021/01/15 09:26:46;;;;;;;56.40;53.10;;;18.30;32.90;;;;;;5096142;28;20061;-51
2021/01/15 09:29:13;;;;;;;43.47;40.78;;;18.40;32.30;;;;;;5096334;28;20039;-51
2021/01/15 09:31:41;;;;;;;40.30;37.72;;;19.00;32.40;;;;;;5060619;28;20048;-51
2021/01/15 09:34:12;;;;;;;47.28;44.33;;;19.00;32.20;;;;;;5096214;28;20032;-51
2021/01/15 09:36:41;;;;;;;54.72;51.47;;;18.20;32.30;;;;;;5096362;28;20034;-52
2021/01/15 09:39:07;;;;;;;61.95;58.20;;;18.60;32.30;;;;;;5060662;28;20035;-51
2021/01/15 09:41:33;;;;;;;48.50;45.38;;;17.70;33.10;;;;;;5060684;28;20502;-51
2021/01/15 09:43:59;;;;;;;58.90;55.38;;;18.10;33.00;;;;;;5095880;28;20035;-51
2021/01/15 09:46:29;;;;;;;77.97;73.65;;;18.70;33.00;;;;;;5060722;28;20398;-50
2021/01/15 09:48:58;;;;;;;67.68;63.55;;;17.20;32.70;;;;;;5095611;28;20047;-51
2021/01/15 09:51:26;;;;;;;67.10;63.17;;;17.40;34.10;;;;;;5095184;28;20032;-51
2021/01/15 09:53:53;;;;;;;105.95;100.00;;;18.10;33.40;;;;;;5095426;28;20490;-51
2021/01/15 09:56:33;;;;;;;114.45;107.93;;;18.00;32.30;;;;;;5060298;28;20044;-51
2021/01/15 09:59:00;;;;;;;52.47;49.13;;;18.20;33.00;;;;;;5095204;28;20040;-52
2021/01/15 10:01:27;;;;;;;57.20;53.65;;;18.90;32.70;;;;;;5095228;28;20112;-51
2021/01/15 10:03:55;;;;;;;54.38;51.03;;;18.60;32.90;;;;;;5095253;28;20036;-51
2021/01/15 10:06:21;;;;;;;111.55;105.43;;;19.00;32.50;;;;;;5095628;28;20028;-51
2021/01/15 10:08:48;;;;;;;57.08;53.72;;;18.90;32.20;;;;;;5092340;28;20047;-50
2021/01/15 10:11:22;;;;;;;57.65;54.13;;;19.30;31.80;;;;;;5095464;28;20030;-51
2021/01/15 10:13:49;;;;;;;65.63;61.92;;;;;;;;;;5059741;28;20043;-51
2021/01/15 10:16:15;;;;;;;132.88;125.60;;;19.00;31.70;;;;;;5095131;28;20082;-51
2021/01/15 10:18:41;;;;;;;176.88;166.85;;;18.70;32.60;;;;;;5095211;28;20027;-51
2021/01/15 10:21:07;;;;;;;135.10;127.43;;;18.70;32.50;;;;;;5095290;28;20064;-51
2021/01/15 10:23:39;;;;;;;147.73;138.38;;;18.00;33.00;;;;;;5094998;28;20028;-51
2021/01/15 10:26:05;;;;;;;233.85;218.98;;;18.00;33.70;;;;;;5059670;28;20131;-51
2021/01/15 10:28:31;;;;;;;182.55;170.95;;;17.40;33.70;;;;;;5079389;28;20036;-51
2021/01/15 10:30:58;;;;;;;118.68;111.80;;;16.30;35.20;;;;;;5074478;28;20052;-51
2021/01/15 10:33:23;;;;;;;109.85;102.60;;;15.70;35.80;;;;;;5074317;28;20044;-52
2021/01/15 10:35:50;;;;;;;92.95;87.70;;;16.80;35.10;;;;;;5074502;28;20024;-51
2021/01/15 10:38:16;;;;;;;117.30;110.10;;;17.20;34.80;;;;;;5074492;28;20601;-51
2021/01/15 10:40:43;;;;;;;87.90;82.32;;;17.60;34.20;;;;;;5074504;28;20064;-51
2021/01/15 10:43:09;;;;;;;64.53;60.58;;;18.20;34.00;;;;;;4990267;28;20041;-51
2021/01/15 10:45:35;;;;;;;66.65;62.75;;;17.70;34.10;;;;;;5074281;28;20033;-51
2021/01/15 10:48:03;;;;;;;36.90;34.33;;;18.30;34.00;;;;;;5073915;28;20044;-51
2021/01/15 10:50:30;;;;;;;20.70;17.05;;;16.80;35.20;;;;;;5074720;28;20040;-51
2021/01/15 10:52:56;;;;;;;55.22;51.40;;;15.40;36.60;;;;;;5074084;28;20099;-51
2021/01/15 10:55:21;;;;;;;46.90;43.70;;;15.30;38.20;;;;;;5074159;28;20468;-51
2021/01/15 10:57:47;;;;;;;54.53;50.50;;;15.00;38.30;;;;;;5074184;28;20039;-51
2021/01/15 11:00:17;;;;;;;21.38;19.20;;;15.10;39.40;;;;;;5073945;28;20384;-50
2021/01/15 11:02:52;;;;;;;90.47;85.28;;;14.80;39.90;;;;;;5039722;28;20029;-51
2021/01/15 11:05:17;;;;;;;45.30;42.25;;;14.60;41.00;;;;;;5074113;28;20071;-51
2021/01/15 11:07:45;;;;;;;16.67;13.32;;;14.50;40.70;;;;;;5073825;28;20039;-54
2021/01/15 11:10:12;;;;;;;25.80;23.75;;;14.10;40.10;;;;;;5073813;28;20032;-51
2021/01/15 11:12:39;;;;;;;22.95;20.70;;;13.40;41.40;;;;;;5073936;28;20044;-51
2021/01/15 11:15:05;;;;;;;27.88;22.33;;;12.40;42.80;;;;;;5055869;28;20492;-51
2021/01/15 11:17:31;;;;;;;38.50;35.67;;;12.50;44.50;;;;;;5073854;28;20033;-51
2021/01/15 11:19:57;;;;;;;37.78;35.22;;;12.90;43.70;;;;;;5073678;28;20027;-45
2021/01/15 11:22:22;;;;;;;64.43;60.92;;;12.50;43.90;;;;;;5022359;28;20499;-49
2021/01/15 11:24:48;;;;;;;11.40;10.20;;;12.80;44.90;;;;;;5073708;28;20024;-48
2021/01/15 11:27:14;;;;;;;14.35;11.48;;;;;;;;;;5073998;28;20028;-52
2021/01/15 11:29:40;;;;;;;13.40;9.88;;;;;;;;;;5073410;28;20078;-51
2021/01/15 11:32:06;;;;;;;12.73;9.38;;;11.00;55.70;;;;;;5073487;28;20381;-48
2021/01/15 11:34:31;;;;;;;13.65;10.32;;;10.50;48.80;;;;;;5073630;28;20032;-49
2021/01/15 11:36:57;;;;;;;13.13;10.70;;;10.20;50.60;;;;;;5073804;28;20024;-53
2021/01/15 11:39:23;;;;;;;11.73;8.73;;;;;;;;;;4989190;28;20082;-55
2021/01/15 11:41:51;;;;;;;22.92;20.83;;;9.00;52.00;;;;;;5073447;28;20024;-51
2021/01/15 11:44:18;;;;;;;24.50;18.67;;;9.10;54.30;;;;;;5073536;28;20033;-55
2021/01/15 11:46:44;;;;;;;11.43;8.68;;;9.20;55.50;;;;;;5073154;28;20039;-51
2021/01/15 11:49:10;;;;;;;11.02;9.10;;;8.70;54.80;;;;;;5038549;28;20431;-55
2021/01/15 11:51:36;;;;;;;14.90;10.60;;;;;;;;;;5073504;28;20031;-48
2021/01/15 11:54:02;;;;;;;15.30;11.10;;;8.30;82.30;;;;;;5073327;28;20039;-51
2021/01/15 11:56:28;;;;;;;14.55;10.43;;;8.10;58.10;;;;;;4973512;28;20036;-50
2021/01/15 11:58:53;;;;;;;16.10;10.38;;;7.90;60.00;;;;;;5073357;28;20052;-52
2021/01/15 12:01:20;;;;;;;17.42;11.32;;;8.00;60.20;;;;;;5073256;28;20074;-51
2021/01/15 12:03:46;;;;;;;14.50;10.43;;;8.20;60.20;;;;;;5038524;28;20037;-51
2021/01/15 12:06:12;;;;;;;14.93;11.18;;;7.60;61.00;;;;;;5073459;28;20025;-51
2021/01/15 12:08:40;;;;;;;17.23;9.85;;;7.60;61.60;;;;;;5073784;28;20037;-53
2021/01/15 12:11:07;;;;;;;14.63;9.38;;;7.70;61.20;;;;;;5073267;28;20032;-48
2021/01/15 12:13:34;;;;;;;12.90;9.90;;;7.20;62.60;;;;;;5022757;28;20040;-48
2021/01/15 12:16:00;;;;;;;14.10;10.27;;;7.10;64.20;;;;;;5077135;28;20029;-49
2021/01/15 12:18:26;;;;;;;13.35;9.77;;;6.90;65.20;;;;;;5042373;28;20488;-53
2021/01/15 12:20:52;;;;;;;16.23;9.80;;;6.70;66.30;;;;;;5077243;28;20036;-50
2021/01/15 12:23:19;;;;;;;11.77;9.80;;;6.50;67.30;;;;;;5076940;28;20463;-54
2021/01/15 12:25:45;;;;;;;12.63;8.30;;;6.50;67.70;;;;;;5076974;28;20025;-52
2021/01/15 12:28:13;;;;;;;10.40;8.05;;;6.70;67.20;;;;;;5042046;28;20594;-50
2021/01/15 12:30:43;;;;;;;13.27;9.40;;;6.20;67.90;;;;;;5077022;28;20052;-50
2021/01/15 12:33:16;;;;;;;11.88;8.93;;;6.20;67.90;;;;;;5076897;28;20117;-53
2021/01/15 12:35:46;;;;;;;14.52;9.27;;;6.40;68.30;;;;;;5076944;28;20048;-52
2021/01/15 12:38:14;;;;;;;19.95;11.05;;;6.40;67.10;;;;;;5076862;28;20033;-52
2021/01/15 12:40:40;;;;;;;14.75;9.88;;;6.30;68.50;;;;;;5041995;28;20040;-50
2021/01/15 12:43:09;;;;;;;20.33;13.18;;;6.10;68.20;;;;;;5041792;28;20036;-49
2021/01/15 12:45:40;;;;;;;11.73;8.40;;;6.20;73.90;;;;;;5076894;28;20025;-54
2021/01/15 12:48:07;;;;;;;20.23;13.15;;;5.90;73.20;;;;;;5058207;28;20557;-52
2021/01/15 12:50:33;;;;;;;52.92;36.78;;;6.00;84.40;;;;;;5041659;28;20032;-53
2021/01/15 12:52:59;;;;;;;50.25;26.65;;;6.20;82.40;;;;;;5076611;28;20033;-50
2021/01/15 12:55:26;;;;;;;37.15;25.58;;;6.40;78.90;;;;;;5041604;28;20040;-49
2021/01/15 12:57:53;;;;;;;24.73;16.77;;;6.40;86.90;;;;;;5076596;28;20020;-51